sensor_id;sensor_type;location;lat;lon;timestamp;temperature;humidity
2447;DHT22;26430;48.818;9.244;2022-11-20T00:00:44;6.10;99.90
2447;DHT22;26430;48.818;9.244;2022-11-20T00:03:10;6.10;99.90
2447;DHT22;26430;48.818;9.244;2022-11-20T00:05:36;6.20;99.90
2447;DHT22;26430;48.818;9.244;2022-11-20T00:08:01;6.30;99.90
2447;DHT22;26430;48.818;9.244;2022-11-20T00:10:27;6.50;99.90
2447;DHT22;26430;48.818;9.244;2022-11-20T00:12:53;6.70;99.90
2447;DHT22;26430;48.818;9.244;2022-11-20T00:15:18;6.80;99.90
2447;DHT22;26430;48.818;9.244;2022-11-20T00:17:44;6.80;99.90
2447;DHT22;26430;48.818;9.244;2022-11-20T00:20:10;6.80;99.90
2447;DHT22;26430;48.818;9.244;2022-11-20T00:22:36;6.50;99.90
2447;DHT22;26430;48.818;9.244;2022-11-20T00:25:02;6.40;99.90
2447;DHT22;26430;48.818;9.244;2022-11-20T00:27:28;6.20;99.90
2447;DHT22;26430;48.818;9.244;2022-11-20T00:29:54;6.10;99.90
2447;DHT22;26430;48.818;9.244;2022-11-20T00:32:20;6.20;99.90
2447;DHT22;26430;48.818;9.244;2022-11-20T00:34:46;6.30;99.90
2447;DHT22;26430;48.818;9.244;2022-11-20T00:37:12;6.20;99.90
2447;DHT22;26430;48.818;9.244;2022-11-20T00:39:38;6.20;99.90
2447;DHT22;26430;48.818;9.244;2022-11-20T00:42:03;6.10;99.90
2447;DHT22;26430;48.818;9.244;2022-11-20T00:44:29;5.90;99.90
2447;DHT22;26430;48.818;9.244;2022-11-20T00:46:54;6.10;99.90
2447;DHT22;26430;48.818;9.244;2022-11-20T00:49:20;6.20;99.90
2447;DHT22;26430;48.818;9.244;2022-11-20T00:51:46;6.40;99.90
2447;DHT22;26430;48.818;9.244;2022-11-20T00:54:12;6.20;99.90
2447;DHT22;26430;48.818;9.244;2022-11-20T00:56:38;6.20;99.90
2447;DHT22;26430;48.818;9.244;2022-11-20T00:59:04;6.00;99.90
2447;DHT22;26430;48.818;9.244;2022-11-20T01:01:29;6.10;99.90
2447;DHT22;26430;48.818;9.244;2022-11-20T01:03:57;6.10;99.90
2447;DHT22;26430;48.818;9.244;2022-11-20T01:06:26;6.20;99.90
2447;DHT22;26430;48.818;9.244;2022-11-20T01:08:55;6.10;99.90
2447;DHT22;26430;48.818;9.244;2022-11-20T01:11:24;6.10;99.90
2447;DHT22;26430;48.818;9.244;2022-11-20T01:13:51;6.10;99.90
2447;DHT22;26430;48.818;9.244;2022-11-20T01:16:20;6.00;99.90
2447;DHT22;26430;48.818;9.244;2022-11-20T01:18:49;6.10;99.90
2447;DHT22;26430;48.818;9.244;2022-11-20T01:21:27;6.10;99.90
2447;DHT22;26430;48.818;9.244;2022-11-20T01:23:53;6.00;99.90
2447;DHT22;26430;48.818;9.244;2022-11-20T01:26:23;6.00;99.90
2447;DHT22;26430;48.818;9.244;2022-11-20T01:28:50;6.00;99.90
2447;DHT22;26430;48.818;9.244;2022-11-20T01:31:19;6.10;99.90
2447;DHT22;26430;48.818;9.244;2022-11-20T01:33:47;6.10;99.90
2447;DHT22;26430;48.818;9.244;2022-11-20T01:36:15;6.00;99.90
2447;DHT22;26430;48.818;9.244;2022-11-20T01:38:42;5.90;99.90
2447;DHT22;26430;48.818;9.244;2022-11-20T01:41:10;6.00;99.90
2447;DHT22;26430;48.818;9.244;2022-11-20T01:43:37;5.90;99.90
2447;DHT22;26430;48.818;9.244;2022-11-20T01:48:57;5.80;99.90
2447;DHT22;26430;48.818;9.244;2022-11-20T01:53:56;5.80;99.90
2447;DHT22;26430;48.818;9.244;2022-11-20T01:56:26;5.80;99.90
2447;DHT22;26430;48.818;9.244;2022-11-20T01:58:55;5.90;99.90
2447;DHT22;26430;48.818;9.244;2022-11-20T02:01:23;6.10;99.90
2447;DHT22;26430;48.818;9.244;2022-11-20T02:03:50;5.90;99.90
2447;DHT22;26430;48.818;9.244;2022-11-20T02:06:40;5.90;99.90
2447;DHT22;26430;48.818;9.244;2022-11-20T02:09:08;5.80;99.90
2447;DHT22;26430;48.818;9.244;2022-11-20T02:11:34;6.00;99.90
2447;DHT22;26430;48.818;9.244;2022-11-20T02:14:00;6.20;99.90
2447;DHT22;26430;48.818;9.244;2022-11-20T02:16:30;6.30;99.90
2447;DHT22;26430;48.818;9.244;2022-11-20T02:18:59;6.30;99.90
2447;DHT22;26430;48.818;9.244;2022-11-20T02:24:32;6.50;99.90
2447;DHT22;26430;48.818;9.244;2022-11-20T02:27:10;6.50;99.90
2447;DHT22;26430;48.818;9.244;2022-11-20T02:29:56;6.30;99.90
2447;DHT22;26430;48.818;9.244;2022-11-20T02:32:28;6.20;99.90
2447;DHT22;26430;48.818;9.244;2022-11-20T02:34:55;5.90;99.90
2447;DHT22;26430;48.818;9.244;2022-11-20T02:37:21;6.00;99.90
2447;DHT22;26430;48.818;9.244;2022-11-20T02:39:49;5.90;99.90
2447;DHT22;26430;48.818;9.244;2022-11-20T02:42:15;5.80;99.90
2447;DHT22;26430;48.818;9.244;2022-11-20T02:44:41;6.00;99.90
2447;DHT22;26430;48.818;9.244;2022-11-20T02:47:08;5.90;99.90
2447;DHT22;26430;48.818;9.244;2022-11-20T02:49:34;5.90;99.90
2447;DHT22;26430;48.818;9.244;2022-11-20T02:51:59;5.80;99.90
2447;DHT22;26430;48.818;9.244;2022-11-20T02:54:26;5.90;99.90
2447;DHT22;26430;48.818;9.244;2022-11-20T02:56:52;6.10;99.90
2447;DHT22;26430;48.818;9.244;2022-11-20T02:59:17;6.00;99.90
2447;DHT22;26430;48.818;9.244;2022-11-20T03:01:43;5.70;99.90
2447;DHT22;26430;48.818;9.244;2022-11-20T03:04:09;5.90;99.90
2447;DHT22;26430;48.818;9.244;2022-11-20T03:06:34;5.90;99.90
2447;DHT22;26430;48.818;9.244;2022-11-20T03:09:02;5.90;99.90
2447;DHT22;26430;48.818;9.244;2022-11-20T03:11:28;6.00;99.90
2447;DHT22;26430;48.818;9.244;2022-11-20T03:13:54;6.10;99.90
2447;DHT22;26430;48.818;9.244;2022-11-20T03:16:21;6.00;99.90
2447;DHT22;26430;48.818;9.244;2022-11-20T03:18:47;5.90;99.90
2447;DHT22;26430;48.818;9.244;2022-11-20T03:21:14;5.90;99.90
2447;DHT22;26430;48.818;9.244;2022-11-20T03:23:40;5.80;99.90
2447;DHT22;26430;48.818;9.244;2022-11-20T03:26:15;5.80;99.90
2447;DHT22;26430;48.818;9.244;2022-11-20T03:28:45;5.90;99.90
2447;DHT22;26430;48.818;9.244;2022-11-20T03:31:13;5.80;99.90
2447;DHT22;26430;48.818;9.244;2022-11-20T03:33:42;5.80;99.90
2447;DHT22;26430;48.818;9.244;2022-11-20T03:36:11;5.90;99.90
2447;DHT22;26430;48.818;9.244;2022-11-20T03:38:37;5.70;99.90
2447;DHT22;26430;48.818;9.244;2022-11-20T03:41:08;5.80;99.90
2447;DHT22;26430;48.818;9.244;2022-11-20T03:43:36;5.80;99.90
2447;DHT22;26430;48.818;9.244;2022-11-20T03:46:02;6.10;99.90
2447;DHT22;26430;48.818;9.244;2022-11-20T03:48:28;6.10;99.90
2447;DHT22;26430;48.818;9.244;2022-11-20T03:51:10;6.10;99.90
2447;DHT22;26430;48.818;9.244;2022-11-20T03:53:38;6.00;99.90
2447;DHT22;26430;48.818;9.244;2022-11-20T03:56:04;5.90;99.90
2447;DHT22;26430;48.818;9.244;2022-11-20T03:58:30;5.80;99.90
2447;DHT22;26430;48.818;9.244;2022-11-20T04:00:57;5.80;99.90
2447;DHT22;26430;48.818;9.244;2022-11-20T04:03:25;5.80;99.90
2447;DHT22;26430;48.818;9.244;2022-11-20T04:05:51;5.80;99.90
2447;DHT22;26430;48.818;9.244;2022-11-20T04:08:16;5.80;99.90
2447;DHT22;26430;48.818;9.244;2022-11-20T04:10:42;5.80;99.90
2447;DHT22;26430;48.818;9.244;2022-11-20T04:13:07;5.80;99.90
2447;DHT22;26430;48.818;9.244;2022-11-20T04:15:33;5.80;99.90
2447;DHT22;26430;48.818;9.244;2022-11-20T04:17:59;5.80;99.90
2447;DHT22;26430;48.818;9.244;2022-11-20T04:20:24;5.70;99.90
2447;DHT22;26430;48.818;9.244;2022-11-20T04:22:53;5.70;99.90
2447;DHT22;26430;48.818;9.244;2022-11-20T04:25:21;5.70;99.90
2447;DHT22;26430;48.818;9.244;2022-11-20T04:27:46;5.60;99.90
2447;DHT22;26430;48.818;9.244;2022-11-20T04:30:12;5.60;99.90
2447;DHT22;26430;48.818;9.244;2022-11-20T04:32:38;5.60;99.90
2447;DHT22;26430;48.818;9.244;2022-11-20T04:35:04;5.50;99.90
2447;DHT22;26430;48.818;9.244;2022-11-20T04:37:30;5.50;99.90
2447;DHT22;26430;48.818;9.244;2022-11-20T04:39:56;5.50;99.90
2447;DHT22;26430;48.818;9.244;2022-11-20T04:42:23;5.40;99.90
2447;DHT22;26430;48.818;9.244;2022-11-20T04:44:55;5.60;99.90
2447;DHT22;26430;48.818;9.244;2022-11-20T04:47:21;5.50;99.90
2447;DHT22;26430;48.818;9.244;2022-11-20T04:49:47;5.50;99.90
2447;DHT22;26430;48.818;9.244;2022-11-20T04:52:13;5.40;99.90
2447;DHT22;26430;48.818;9.244;2022-11-20T04:54:38;5.60;99.90
2447;DHT22;26430;48.818;9.244;2022-11-20T04:57:05;5.60;99.90
2447;DHT22;26430;48.818;9.244;2022-11-20T04:59:32;5.60;99.90
2447;DHT22;26430;48.818;9.244;2022-11-20T05:01:57;5.60;99.90
2447;DHT22;26430;48.818;9.244;2022-11-20T05:04:23;5.70;99.90
2447;DHT22;26430;48.818;9.244;2022-11-20T05:06:50;5.80;99.90
2447;DHT22;26430;48.818;9.244;2022-11-20T05:09:15;5.80;99.90
2447;DHT22;26430;48.818;9.244;2022-11-20T05:11:41;5.70;99.90
2447;DHT22;26430;48.818;9.244;2022-11-20T05:14:06;5.70;99.90
2447;DHT22;26430;48.818;9.244;2022-11-20T05:16:34;5.70;99.90
2447;DHT22;26430;48.818;9.244;2022-11-20T05:19:00;5.50;99.90
2447;DHT22;26430;48.818;9.244;2022-11-20T05:21:26;5.60;99.90
2447;DHT22;26430;48.818;9.244;2022-11-20T05:23:53;5.70;99.90
2447;DHT22;26430;48.818;9.244;2022-11-20T05:26:20;5.60;99.90
2447;DHT22;26430;48.818;9.244;2022-11-20T05:28:50;5.60;99.90
2447;DHT22;26430;48.818;9.244;2022-11-20T05:31:18;5.60;99.90
2447;DHT22;26430;48.818;9.244;2022-11-20T05:33:45;5.60;99.90
2447;DHT22;26430;48.818;9.244;2022-11-20T05:36:12;5.80;99.90
2447;DHT22;26430;48.818;9.244;2022-11-20T05:38:38;5.80;99.90
2447;DHT22;26430;48.818;9.244;2022-11-20T05:41:15;5.80;99.90
2447;DHT22;26430;48.818;9.244;2022-11-20T05:43:43;5.90;99.90
2447;DHT22;26430;48.818;9.244;2022-11-20T05:46:11;5.80;99.90
2447;DHT22;26430;48.818;9.244;2022-11-20T05:48:39;5.90;99.90
2447;DHT22;26430;48.818;9.244;2022-11-20T05:51:07;6.10;99.90
2447;DHT22;26430;48.818;9.244;2022-11-20T05:53:34;6.00;99.90
2447;DHT22;26430;48.818;9.244;2022-11-20T05:56:09;6.10;99.90
2447;DHT22;26430;48.818;9.244;2022-11-20T05:58:36;6.10;99.90
2447;DHT22;26430;48.818;9.244;2022-11-20T06:03:30;6.10;99.90
2447;DHT22;26430;48.818;9.244;2022-11-20T06:05:56;6.00;99.90
2447;DHT22;26430;48.818;9.244;2022-11-20T06:08:21;6.20;99.90
2447;DHT22;26430;48.818;9.244;2022-11-20T06:10:47;6.10;99.90
2447;DHT22;26430;48.818;9.244;2022-11-20T06:13:13;6.00;99.90
2447;DHT22;26430;48.818;9.244;2022-11-20T06:15:38;6.20;99.90
2447;DHT22;26430;48.818;9.244;2022-11-20T06:18:04;6.20;99.90
2447;DHT22;26430;48.818;9.244;2022-11-20T06:20:29;6.00;99.90
2447;DHT22;26430;48.818;9.244;2022-11-20T06:22:55;5.90;99.90
2447;DHT22;26430;48.818;9.244;2022-11-20T06:25:21;6.00;99.90
2447;DHT22;26430;48.818;9.244;2022-11-20T06:27:46;5.90;99.90
2447;DHT22;26430;48.818;9.244;2022-11-20T06:30:12;5.90;99.90
2447;DHT22;26430;48.818;9.244;2022-11-20T06:32:38;5.90;99.90
2447;DHT22;26430;48.818;9.244;2022-11-20T06:35:04;5.90;99.90
2447;DHT22;26430;48.818;9.244;2022-11-20T06:37:30;5.90;99.90
2447;DHT22;26430;48.818;9.244;2022-11-20T06:39:55;5.90;99.90
2447;DHT22;26430;48.818;9.244;2022-11-20T06:42:21;5.90;99.90
2447;DHT22;26430;48.818;9.244;2022-11-20T06:44:46;5.90;99.90
2447;DHT22;26430;48.818;9.244;2022-11-20T06:47:12;5.90;99.90
2447;DHT22;26430;48.818;9.244;2022-11-20T06:49:38;6.00;99.90
2447;DHT22;26430;48.818;9.244;2022-11-20T06:52:04;6.10;99.90
2447;DHT22;26430;48.818;9.244;2022-11-20T06:54:30;6.10;99.90
2447;DHT22;26430;48.818;9.244;2022-11-20T06:56:55;6.00;99.90
2447;DHT22;26430;48.818;9.244;2022-11-20T06:59:21;6.00;99.90
2447;DHT22;26430;48.818;9.244;2022-11-20T07:01:46;6.00;99.90
2447;DHT22;26430;48.818;9.244;2022-11-20T07:04:12;6.00;99.90
2447;DHT22;26430;48.818;9.244;2022-11-20T07:06:38;6.00;99.90
2447;DHT22;26430;48.818;9.244;2022-11-20T07:09:04;6.00;99.90
2447;DHT22;26430;48.818;9.244;2022-11-20T07:11:29;6.00;99.90
2447;DHT22;26430;48.818;9.244;2022-11-20T07:13:56;6.00;99.90
2447;DHT22;26430;48.818;9.244;2022-11-20T07:16:22;6.10;99.90
2447;DHT22;26430;48.818;9.244;2022-11-20T07:18:48;6.10;99.90
2447;DHT22;26430;48.818;9.244;2022-11-20T07:21:14;6.10;99.90
2447;DHT22;26430;48.818;9.244;2022-11-20T07:23:39;6.20;99.90
2447;DHT22;26430;48.818;9.244;2022-11-20T07:26:10;6.20;99.90
2447;DHT22;26430;48.818;9.244;2022-11-20T07:28:37;6.20;99.90
2447;DHT22;26430;48.818;9.244;2022-11-20T07:31:03;6.20;99.90
2447;DHT22;26430;48.818;9.244;2022-11-20T07:33:30;6.20;99.90
2447;DHT22;26430;48.818;9.244;2022-11-20T07:35:58;6.30;99.90
2447;DHT22;26430;48.818;9.244;2022-11-20T07:38:24;6.40;99.90
2447;DHT22;26430;48.818;9.244;2022-11-20T07:40:56;6.30;99.90
2447;DHT22;26430;48.818;9.244;2022-11-20T07:43:23;6.30;99.90
2447;DHT22;26430;48.818;9.244;2022-11-20T07:45:49;6.50;99.90
2447;DHT22;26430;48.818;9.244;2022-11-20T07:48:15;6.50;99.90
2447;DHT22;26430;48.818;9.244;2022-11-20T07:50:41;6.60;99.90
2447;DHT22;26430;48.818;9.244;2022-11-20T07:53:07;6.50;99.90
2447;DHT22;26430;48.818;9.244;2022-11-20T07:55:33;6.50;99.90
2447;DHT22;26430;48.818;9.244;2022-11-20T07:57:58;6.50;99.90
2447;DHT22;26430;48.818;9.244;2022-11-20T08:00:25;6.50;99.90
2447;DHT22;26430;48.818;9.244;2022-11-20T08:02:51;6.50;99.90
2447;DHT22;26430;48.818;9.244;2022-11-20T08:05:17;6.60;99.90
2447;DHT22;26430;48.818;9.244;2022-11-20T08:07:44;6.50;99.90
2447;DHT22;26430;48.818;9.244;2022-11-20T08:10:13;6.50;99.90
2447;DHT22;26430;48.818;9.244;2022-11-20T08:12:46;6.60;99.90
2447;DHT22;26430;48.818;9.244;2022-11-20T08:15:31;6.60;99.90
2447;DHT22;26430;48.818;9.244;2022-11-20T08:18:10;6.60;99.90
2447;DHT22;26430;48.818;9.244;2022-11-20T08:20:37;6.60;99.90
2447;DHT22;26430;48.818;9.244;2022-11-20T08:23:05;6.70;99.90
2447;DHT22;26430;48.818;9.244;2022-11-20T08:25:32;6.60;99.90
2447;DHT22;26430;48.818;9.244;2022-11-20T08:28:03;6.70;99.90
2447;DHT22;26430;48.818;9.244;2022-11-20T08:30:29;6.70;99.90
2447;DHT22;26430;48.818;9.244;2022-11-20T08:33:07;6.70;99.90
2447;DHT22;26430;48.818;9.244;2022-11-20T08:35:34;6.70;99.90
2447;DHT22;26430;48.818;9.244;2022-11-20T08:38:02;6.70;99.90
2447;DHT22;26430;48.818;9.244;2022-11-20T08:40:28;7.00;99.90
2447;DHT22;26430;48.818;9.244;2022-11-20T08:42:53;7.00;99.90
2447;DHT22;26430;48.818;9.244;2022-11-20T08:45:19;6.90;99.90
2447;DHT22;26430;48.818;9.244;2022-11-20T08:47:45;6.90;99.90
2447;DHT22;26430;48.818;9.244;2022-11-20T08:50:13;6.80;99.90
2447;DHT22;26430;48.818;9.244;2022-11-20T08:52:39;6.90;99.90
2447;DHT22;26430;48.818;9.244;2022-11-20T08:55:06;7.00;99.90
2447;DHT22;26430;48.818;9.244;2022-11-20T08:57:35;7.00;99.90
2447;DHT22;26430;48.818;9.244;2022-11-20T09:00:06;7.10;99.90
2447;DHT22;26430;48.818;9.244;2022-11-20T09:02:32;7.00;99.90
2447;DHT22;26430;48.818;9.244;2022-11-20T09:04:58;7.10;99.90
2447;DHT22;26430;48.818;9.244;2022-11-20T09:07:24;7.20;99.90
2447;DHT22;26430;48.818;9.244;2022-11-20T09:09:49;7.30;99.90
2447;DHT22;26430;48.818;9.244;2022-11-20T09:12:15;7.30;99.90
2447;DHT22;26430;48.818;9.244;2022-11-20T09:14:40;7.30;99.90
2447;DHT22;26430;48.818;9.244;2022-11-20T09:17:06;7.30;99.90
2447;DHT22;26430;48.818;9.244;2022-11-20T09:19:33;7.40;99.90
2447;DHT22;26430;48.818;9.244;2022-11-20T09:21:59;7.40;99.90
2447;DHT22;26430;48.818;9.244;2022-11-20T09:24:26;7.50;99.90
2447;DHT22;26430;48.818;9.244;2022-11-20T09:26:51;7.60;99.90
2447;DHT22;26430;48.818;9.244;2022-11-20T09:29:17;7.60;99.90
2447;DHT22;26430;48.818;9.244;2022-11-20T09:31:43;7.70;99.90
2447;DHT22;26430;48.818;9.244;2022-11-20T09:34:08;7.60;99.90
2447;DHT22;26430;48.818;9.244;2022-11-20T09:36:35;7.60;99.90
2447;DHT22;26430;48.818;9.244;2022-11-20T09:39:01;7.60;99.90
2447;DHT22;26430;48.818;9.244;2022-11-20T09:42:04;7.60;99.90
2447;DHT22;26430;48.818;9.244;2022-11-20T09:50:26;7.60;99.90
2447;DHT22;26430;48.818;9.244;2022-11-20T09:55:40;7.70;99.90
2447;DHT22;26430;48.818;9.244;2022-11-20T09:58:15;7.50;99.90
2447;DHT22;26430;48.818;9.244;2022-11-20T10:00:41;7.60;99.90
2447;DHT22;26430;48.818;9.244;2022-11-20T10:03:22;7.60;99.90
2447;DHT22;26430;48.818;9.244;2022-11-20T10:05:54;7.60;99.90
2447;DHT22;26430;48.818;9.244;2022-11-20T10:08:29;7.40;99.90
2447;DHT22;26430;48.818;9.244;2022-11-20T10:28:14;7.20;99.90
2447;DHT22;26430;48.818;9.244;2022-11-20T10:30:43;7.10;99.90
2447;DHT22;26430;48.818;9.244;2022-11-20T10:33:24;7.10;99.90
2447;DHT22;26430;48.818;9.244;2022-11-20T10:38:53;6.90;99.90
2447;DHT22;26430;48.818;9.244;2022-11-20T10:41:30;6.70;99.90
2447;DHT22;26430;48.818;9.244;2022-11-20T10:44:19;6.70;99.90
2447;DHT22;26430;48.818;9.244;2022-11-20T10:47:05;6.60;99.90
2447;DHT22;26430;48.818;9.244;2022-11-20T10:49:34;6.60;99.90
2447;DHT22;26430;48.818;9.244;2022-11-20T10:52:12;6.60;99.90
2447;DHT22;26430;48.818;9.244;2022-11-20T10:55:39;6.60;99.90
2447;DHT22;26430;48.818;9.244;2022-11-20T11:00:31;6.70;99.90
2447;DHT22;26430;48.818;9.244;2022-11-20T11:02:56;6.60;99.90
2447;DHT22;26430;48.818;9.244;2022-11-20T11:08:36;6.60;99.90
2447;DHT22;26430;48.818;9.244;2022-11-20T11:11:18;6.70;99.90
2447;DHT22;26430;48.818;9.244;2022-11-20T11:13:45;6.70;99.90
2447;DHT22;26430;48.818;9.244;2022-11-20T11:16:27;6.70;99.90
2447;DHT22;26430;48.818;9.244;2022-11-20T11:19:06;6.80;99.90
2447;DHT22;26430;48.818;9.244;2022-11-20T11:21:32;6.70;99.90
2447;DHT22;26430;48.818;9.244;2022-11-20T11:24:00;6.70;99.90
2447;DHT22;26430;48.818;9.244;2022-11-20T11:26:27;6.60;99.90
2447;DHT22;26430;48.818;9.244;2022-11-20T11:28:58;6.80;99.90
2447;DHT22;26430;48.818;9.244;2022-11-20T11:31:29;6.60;99.90
2447;DHT22;26430;48.818;9.244;2022-11-20T11:36:33;7.00;99.90
2447;DHT22;26430;48.818;9.244;2022-11-20T11:39:00;7.40;99.90
2447;DHT22;26430;48.818;9.244;2022-11-20T11:41:30;7.60;99.90
2447;DHT22;26430;48.818;9.244;2022-11-20T11:47:11;8.10;99.90
2447;DHT22;26430;48.818;9.244;2022-11-20T11:49:41;8.10;99.90
2447;DHT22;26430;48.818;9.244;2022-11-20T11:52:18;8.20;99.90
2447;DHT22;26430;48.818;9.244;2022-11-20T11:54:55;8.50;99.90
2447;DHT22;26430;48.818;9.244;2022-11-20T11:57:39;8.50;99.90
2447;DHT22;26430;48.818;9.244;2022-11-20T12:00:15;8.80;99.90
2447;DHT22;26430;48.818;9.244;2022-11-20T12:05:59;9.00;99.90
2447;DHT22;26430;48.818;9.244;2022-11-20T12:08:49;8.90;99.90
2447;DHT22;26430;48.818;9.244;2022-11-20T12:14:21;8.90;99.90
2447;DHT22;26430;48.818;9.244;2022-11-20T12:16:50;8.90;99.90
2447;DHT22;26430;48.818;9.244;2022-11-20T12:19:16;9.00;99.90
2447;DHT22;26430;48.818;9.244;2022-11-20T12:30:14;9.30;99.90
2447;DHT22;26430;48.818;9.244;2022-11-20T12:33:02;9.60;99.90
2447;DHT22;26430;48.818;9.244;2022-11-20T12:41:19;9.40;99.90
2447;DHT22;26430;48.818;9.244;2022-11-20T12:53:29;9.00;99.90
2447;DHT22;26430;48.818;9.244;2022-11-20T13:07:05;9.40;99.90
2447;DHT22;26430;48.818;9.244;2022-11-20T13:09:32;9.40;99.90
2447;DHT22;26430;48.818;9.244;2022-11-20T13:12:09;9.40;99.90
2447;DHT22;26430;48.818;9.244;2022-11-20T13:17:56;9.50;99.90
2447;DHT22;26430;48.818;9.244;2022-11-20T13:20:24;9.50;99.90
2447;DHT22;26430;48.818;9.244;2022-11-20T13:22:52;9.40;99.90
2447;DHT22;26430;48.818;9.244;2022-11-20T13:25:28;9.40;99.90
2447;DHT22;26430;48.818;9.244;2022-11-20T13:27:58;9.30;99.90
2447;DHT22;26430;48.818;9.244;2022-11-20T13:30:26;9.20;99.90
2447;DHT22;26430;48.818;9.244;2022-11-20T13:35:37;9.30;99.90
2447;DHT22;26430;48.818;9.244;2022-11-20T13:38:10;9.20;99.90
2447;DHT22;26430;48.818;9.244;2022-11-20T13:40:51;9.30;99.90
2447;DHT22;26430;48.818;9.244;2022-11-20T13:43:40;9.10;99.90
2447;DHT22;26430;48.818;9.244;2022-11-20T13:46:08;8.90;99.90
2447;DHT22;26430;48.818;9.244;2022-11-20T13:48:42;8.90;99.90
2447;DHT22;26430;48.818;9.244;2022-11-20T13:59:40;9.00;99.90
2447;DHT22;26430;48.818;9.244;2022-11-20T14:02:14;9.00;99.90
2447;DHT22;26430;48.818;9.244;2022-11-20T14:04:47;8.90;99.90
2447;DHT22;26430;48.818;9.244;2022-11-20T14:07:14;8.70;99.90
2447;DHT22;26430;48.818;9.244;2022-11-20T14:09:54;8.60;99.90
2447;DHT22;26430;48.818;9.244;2022-11-20T14:12:28;8.60;99.90
2447;DHT22;26430;48.818;9.244;2022-11-20T14:14:54;8.70;99.90
2447;DHT22;26430;48.818;9.244;2022-11-20T14:17:31;8.60;99.90
2447;DHT22;26430;48.818;9.244;2022-11-20T14:20:06;8.50;99.90
2447;DHT22;26430;48.818;9.244;2022-11-20T14:22:33;8.40;99.90
2447;DHT22;26430;48.818;9.244;2022-11-20T14:27:40;8.40;99.90
2447;DHT22;26430;48.818;9.244;2022-11-20T14:30:21;8.30;99.90
2447;DHT22;26430;48.818;9.244;2022-11-20T14:32:48;8.20;99.90
2447;DHT22;26430;48.818;9.244;2022-11-20T14:35:35;8.20;99.90
2447;DHT22;26430;48.818;9.244;2022-11-20T14:38:03;8.00;99.90
2447;DHT22;26430;48.818;9.244;2022-11-20T14:40:34;7.90;99.90
2447;DHT22;26430;48.818;9.244;2022-11-20T14:43:01;7.90;99.90
2447;DHT22;26430;48.818;9.244;2022-11-20T14:45:27;8.00;99.90
2447;DHT22;26430;48.818;9.244;2022-11-20T14:47:56;8.00;99.90
2447;DHT22;26430;48.818;9.244;2022-11-20T14:50:24;8.20;99.90
2447;DHT22;26430;48.818;9.244;2022-11-20T14:52:59;8.00;99.90
2447;DHT22;26430;48.818;9.244;2022-11-20T14:55:35;8.00;99.90
2447;DHT22;26430;48.818;9.244;2022-11-20T14:58:06;7.90;99.90
2447;DHT22;26430;48.818;9.244;2022-11-20T15:00:34;7.90;99.90
2447;DHT22;26430;48.818;9.244;2022-11-20T15:03:00;7.70;99.90
2447;DHT22;26430;48.818;9.244;2022-11-20T15:05:45;7.70;99.90
2447;DHT22;26430;48.818;9.244;2022-11-20T15:08:11;7.60;99.90
2447;DHT22;26430;48.818;9.244;2022-11-20T15:10:37;7.70;99.90
2447;DHT22;26430;48.818;9.244;2022-11-20T15:13:10;7.70;99.90
2447;DHT22;26430;48.818;9.244;2022-11-20T15:15:51;7.70;99.90
2447;DHT22;26430;48.818;9.244;2022-11-20T15:18:28;7.70;99.90
2447;DHT22;26430;48.818;9.244;2022-11-20T15:20:55;7.60;99.90
2447;DHT22;26430;48.818;9.244;2022-11-20T15:23:22;7.60;99.90
2447;DHT22;26430;48.818;9.244;2022-11-20T15:25:49;7.70;99.90
2447;DHT22;26430;48.818;9.244;2022-11-20T15:28:33;7.60;99.90
2447;DHT22;26430;48.818;9.244;2022-11-20T15:31:00;7.50;99.90
2447;DHT22;26430;48.818;9.244;2022-11-20T15:33:27;7.50;99.90
2447;DHT22;26430;48.818;9.244;2022-11-20T15:35:53;7.40;99.90
2447;DHT22;26430;48.818;9.244;2022-11-20T15:38:19;7.40;99.90
2447;DHT22;26430;48.818;9.244;2022-11-20T15:40:44;7.40;99.90
2447;DHT22;26430;48.818;9.244;2022-11-20T15:43:10;7.30;99.90
2447;DHT22;26430;48.818;9.244;2022-11-20T15:48:18;7.20;99.90
2447;DHT22;26430;48.818;9.244;2022-11-20T15:50:52;7.20;99.90
2447;DHT22;26430;48.818;9.244;2022-11-20T15:53:19;7.20;99.90
2447;DHT22;26430;48.818;9.244;2022-11-20T15:55:45;7.10;99.90
2447;DHT22;26430;48.818;9.244;2022-11-20T15:58:11;7.10;99.90
2447;DHT22;26430;48.818;9.244;2022-11-20T16:00:36;7.10;99.90
2447;DHT22;26430;48.818;9.244;2022-11-20T16:03:03;7.00;99.90
2447;DHT22;26430;48.818;9.244;2022-11-20T16:05:29;7.00;99.90
2447;DHT22;26430;48.818;9.244;2022-11-20T16:07:55;7.00;99.90
2447;DHT22;26430;48.818;9.244;2022-11-20T16:10:22;6.90;99.90
2447;DHT22;26430;48.818;9.244;2022-11-20T16:12:49;6.90;99.90
2447;DHT22;26430;48.818;9.244;2022-11-20T16:15:33;7.10;99.90
2447;DHT22;26430;48.818;9.244;2022-11-20T16:18:17;6.90;99.90
2447;DHT22;26430;48.818;9.244;2022-11-20T16:20:45;6.90;99.90
2447;DHT22;26430;48.818;9.244;2022-11-20T16:23:11;7.00;99.90
2447;DHT22;26430;48.818;9.244;2022-11-20T16:25:37;7.00;99.90
2447;DHT22;26430;48.818;9.244;2022-11-20T16:28:03;6.90;99.90
2447;DHT22;26430;48.818;9.244;2022-11-20T16:30:31;6.80;99.90
2447;DHT22;26430;48.818;9.244;2022-11-20T16:32:58;6.90;99.90
2447;DHT22;26430;48.818;9.244;2022-11-20T16:35:25;6.80;99.90
2447;DHT22;26430;48.818;9.244;2022-11-20T16:37:52;6.80;99.90
2447;DHT22;26430;48.818;9.244;2022-11-20T16:40:18;6.80;99.90
2447;DHT22;26430;48.818;9.244;2022-11-20T16:42:43;7.00;99.90
2447;DHT22;26430;48.818;9.244;2022-11-20T16:45:09;6.80;99.90
2447;DHT22;26430;48.818;9.244;2022-11-20T16:47:35;6.90;99.90
2447;DHT22;26430;48.818;9.244;2022-11-20T16:50:02;6.90;99.90
2447;DHT22;26430;48.818;9.244;2022-11-20T16:52:29;6.90;99.90
2447;DHT22;26430;48.818;9.244;2022-11-20T16:54:55;7.00;99.90
2447;DHT22;26430;48.818;9.244;2022-11-20T16:57:21;7.00;99.90
2447;DHT22;26430;48.818;9.244;2022-11-20T16:59:47;7.10;99.90
2447;DHT22;26430;48.818;9.244;2022-11-20T17:02:13;7.10;99.90
2447;DHT22;26430;48.818;9.244;2022-11-20T17:04:39;7.00;99.90
2447;DHT22;26430;48.818;9.244;2022-11-20T17:07:06;7.10;99.90
2447;DHT22;26430;48.818;9.244;2022-11-20T17:09:32;7.00;99.90
2447;DHT22;26430;48.818;9.244;2022-11-20T17:11:58;7.00;99.90
2447;DHT22;26430;48.818;9.244;2022-11-20T17:14:24;7.00;99.90
2447;DHT22;26430;48.818;9.244;2022-11-20T17:16:49;7.00;99.90
2447;DHT22;26430;48.818;9.244;2022-11-20T17:19:15;7.00;99.90
2447;DHT22;26430;48.818;9.244;2022-11-20T17:21:41;7.10;99.90
2447;DHT22;26430;48.818;9.244;2022-11-20T17:24:09;7.00;99.90
2447;DHT22;26430;48.818;9.244;2022-11-20T17:26:37;7.00;99.90
2447;DHT22;26430;48.818;9.244;2022-11-20T17:29:09;6.90;99.90
2447;DHT22;26430;48.818;9.244;2022-11-20T17:31:36;6.90;99.90
2447;DHT22;26430;48.818;9.244;2022-11-20T17:34:04;6.90;99.90
2447;DHT22;26430;48.818;9.244;2022-11-20T17:36:31;6.90;99.90
2447;DHT22;26430;48.818;9.244;2022-11-20T17:38:57;6.80;99.90
2447;DHT22;26430;48.818;9.244;2022-11-20T17:41:25;6.90;99.90
2447;DHT22;26430;48.818;9.244;2022-11-20T17:43:56;6.80;99.90
2447;DHT22;26430;48.818;9.244;2022-11-20T17:46:31;6.80;99.90
2447;DHT22;26430;48.818;9.244;2022-11-20T17:49:00;6.90;99.90
2447;DHT22;26430;48.818;9.244;2022-11-20T17:51:31;6.90;99.90
2447;DHT22;26430;48.818;9.244;2022-11-20T17:53:59;6.90;99.90
2447;DHT22;26430;48.818;9.244;2022-11-20T17:56:26;7.00;99.90
2447;DHT22;26430;48.818;9.244;2022-11-20T17:59:13;6.90;99.90
2447;DHT22;26430;48.818;9.244;2022-11-20T18:01:39;6.90;99.90
2447;DHT22;26430;48.818;9.244;2022-11-20T18:04:07;7.00;99.90